This is the latest recevied weather packets stored in our database for station/object N0ZRD-10. If no packets are shown the sender has not sent any weather packets the latest 10 day(s).
| Time | Temp. | Humidity | Pressure | Rain* | Wind** | Luminosity | Snow |
|---|---|---|---|---|---|---|---|
| 1777728579 | 5.56° C | 44% | - | 0 mm | - | - | - |
| 1777727977 | 5° C | 46% | - | 0 mm | - | - | - |
| 1777726848 | 3.89° C | 55% | - | 0 mm | - | - | - |
| 1777726776 | 3.89° C | 55% | - | 0 mm | - | - | - |
| 1777725573 | 2.78° C | 61% | - | 0 mm | - | - | - |
| 1777724973 | 1.67° C | 64% | - | 0 mm | - | - | - |
| 1777724371 | 1.11° C | 77% | - | 0 mm | - | - | - |
| 1777723770 | 0° C | 79% | - | 0 mm | - | - | - |
| 1777723169 | -0.56° C | 82% | - | 0 mm | - | - | - |
| 1777722568 | -1.11° C | 82% | - | 0 mm | - | - | - |
| 1777721967 | -1.67° C | 81% | - | 0 mm | - | - | - |
| 1777721366 | -1.67° C | 82% | - | 0 mm | - | - | - |
| 1777720837 | -2.22° C | 82% | - | 0 mm | - | - | - |
| 1777720796 | -2.22° C | 82% | - | 0 mm | - | - | - |
| 1777720765 | -2.22° C | 82% | - | 0 mm | - | - | - |
| 1777719563 | -2.78° C | 83% | - | 0 mm | - | - | - |
| 1777718999 | -2.78° C | 82% | - | 0 mm | - | - | - |
| 1777718962 | -2.78° C | 82% | - | 0 mm | - | - | - |
| 1777718362 | -2.78° C | 80% | - | 0 mm | - | - | - |
| 1777717213 | -2.78° C | 79% | - | 0 mm | - | - | - |
| 1777717159 | -2.78° C | 79% | - | 0 mm | - | - | - |
| 1777716005 | -3.33° C | 77% | - | 0 mm | - | - | - |
| 1777715953 | -3.33° C | 77% | - | 0 mm | - | - | - |
| 1777715406 | -2.78° C | 77% | - | 0 mm | - | - | - |
| 1777715352 | -2.78° C | 77% | - | 0 mm | - | - | - |
* Rain latest hour (hover to see other rain measurements)
** Current wind speed in m/s (hover to see current wind gust speed)